createdAt,value
2023-03-21T00:01:54.683Z,96442.19
2023-03-21T00:04:23.802Z,96417.34
2023-03-21T00:06:53.437Z,96420.91
2023-03-21T00:09:20.783Z,96355.06
2023-03-21T00:11:48.375Z,96436.34
2023-03-21T00:14:20.829Z,96430.06
2023-03-21T00:16:50.838Z,96408.78
2023-03-21T00:19:20.910Z,96427.03
2023-03-21T00:22:03.607Z,96406.06
2023-03-21T00:24:32.885Z,96405.63
2023-03-21T00:27:10.744Z,96434.81
2023-03-21T00:29:51.612Z,96358.97
2023-03-21T00:32:19.223Z,96391.09
2023-03-21T00:35:01.533Z,96418.91
2023-03-21T00:37:33.350Z,96413.47
2023-03-21T00:40:00.421Z,96391.22
2023-03-21T00:42:27.988Z,96395.09
2023-03-21T00:44:54.686Z,96427.53
2023-03-21T00:47:21.368Z,96334.03
2023-03-21T00:49:49.912Z,96395.31
2023-03-21T00:52:24.790Z,96367.81
2023-03-21T00:55:01.542Z,96415.81
2023-03-21T00:57:38.152Z,96349.56
2023-03-21T01:00:10.650Z,96394.03
2023-03-21T01:02:38.015Z,96372.94
2023-03-21T01:05:05.442Z,96368.78
2023-03-21T01:07:32.256Z,96367.03
2023-03-21T01:09:58.891Z,96369.06
2023-03-21T01:12:25.723Z,96344.22
2023-03-21T01:14:52.368Z,96407.44
2023-03-21T01:17:18.995Z,96411.84
2023-03-21T01:19:52.130Z,96380.38
2023-03-21T01:22:19.837Z,96363.69
2023-03-21T01:24:55.151Z,96342.63
2023-03-21T01:27:25.552Z,96345.97
2023-03-21T01:29:52.289Z,96298.94
2023-03-21T01:32:18.934Z,96369.28
2023-03-21T01:34:45.557Z,96352.38
2023-03-21T01:37:12.227Z,96390.84
2023-03-21T01:39:45.702Z,96347.09
2023-03-21T01:42:15.540Z,96363.63
2023-03-21T01:44:52.855Z,96393.25
2023-03-21T01:47:19.748Z,96369.81
2023-03-21T01:49:51.448Z,96354.16
2023-03-21T01:52:36.596Z,96321.56
2023-03-21T01:55:13.664Z,96344.31
2023-03-21T01:58:06.862Z,96375.94
2023-03-21T02:00:53.974Z,96361.50
2023-03-21T02:03:50.354Z,96350.56
2023-03-21T02:06:55.488Z,96325.66
2023-03-21T02:09:34.671Z,96369.28
2023-03-21T02:12:02.637Z,96339.81
2023-03-21T02:14:34.567Z,96371.63
2023-03-21T02:17:31.765Z,96301.56
2023-03-21T02:20:15.167Z,96363.06
2023-03-21T02:23:15.519Z,96353.50
2023-03-21T02:26:00.934Z,96359.59
2023-03-21T02:28:55.812Z,96339.31
2023-03-21T02:31:22.437Z,96366.66
2023-03-21T02:34:01.805Z,96371.63
2023-03-21T02:36:28.696Z,96360.03
2023-03-21T02:39:08.001Z,96299.75
2023-03-21T02:41:50.526Z,96316.63
2023-03-21T02:44:53.907Z,96344.47
2023-03-21T02:47:42.142Z,96365.53
2023-03-21T02:50:18.946Z,96319.88
2023-03-21T02:52:48.331Z,96361.09
2023-03-21T02:55:21.966Z,96342.22
2023-03-21T02:58:06.884Z,96362.66
2023-03-21T03:00:39.364Z,96364.03
2023-03-21T03:03:10.525Z,96320.50
2023-03-21T03:05:50.298Z,96345.47
2023-03-21T03:08:38.520Z,96353.00
2023-03-21T03:11:28.813Z,96352.09
2023-03-21T03:14:21.018Z,96357.84
2023-03-21T03:17:18.187Z,96319.16
2023-03-21T03:19:57.370Z,96357.25
2023-03-21T03:22:31.674Z,96356.78
2023-03-21T03:25:39.512Z,96309.47
2023-03-21T03:28:09.679Z,96359.22
2023-03-21T03:30:44.952Z,96359.50
2023-03-21T03:33:17.946Z,96313.06
2023-03-21T03:35:53.025Z,96362.06
2023-03-21T03:38:27.688Z,96327.19
2023-03-21T03:41:03.333Z,96300.69
2023-03-21T03:43:59.432Z,96360.06
2023-03-21T03:46:43.023Z,96361.91
2023-03-21T03:49:21.354Z,96343.16
2023-03-21T03:52:11.798Z,96353.00
2023-03-21T03:54:46.367Z,96303.16
2023-03-21T03:57:14.278Z,96329.06
2023-03-21T03:59:43.597Z,96333.72
2023-03-21T04:02:30.196Z,96356.69
2023-03-21T04:04:57.838Z,96330.47
2023-03-21T04:07:25.200Z,96359.94
2023-03-21T04:09:53.762Z,96322.91
2023-03-21T04:12:21.122Z,96366.44
2023-03-21T04:15:11.520Z,96346.88
2023-03-21T04:17:42.782Z,96371.34
2023-03-21T04:20:15.039Z,96316.91
2023-03-21T04:22:45.805Z,96348.56
2023-03-21T04:25:21.837Z,96335.41
2023-03-21T04:27:49.704Z,96293.66
2023-03-21T04:30:37.787Z,96361.38
2023-03-21T04:33:13.353Z,96349.41
2023-03-21T04:35:45.938Z,96332.16
2023-03-21T04:38:14.022Z,96339.25
2023-03-21T04:40:40.689Z,96298.47
2023-03-21T04:43:07.465Z,96255.69
2023-03-21T04:45:37.532Z,96300.09
2023-03-21T04:48:04.414Z,96317.59
2023-03-21T04:50:32.355Z,96353.91
2023-03-21T04:52:59.921Z,96337.53
2023-03-21T04:55:28.063Z,96273.25
2023-03-21T04:57:54.862Z,96304.41
2023-03-21T05:00:23.077Z,96319.81
2023-03-21T05:02:49.832Z,96291.81
2023-03-21T05:05:16.558Z,96343.91
2023-03-21T05:07:43.200Z,96303.47
2023-03-21T05:10:12.023Z,96353.53
2023-03-21T05:12:41.265Z,96362.16
2023-03-21T05:15:09.632Z,96327.81
2023-03-21T05:17:37.191Z,96316.09
2023-03-21T05:20:24.406Z,96340.16
2023-03-21T05:22:51.988Z,96327.25
2023-03-21T05:25:21.246Z,96347.06
2023-03-21T05:28:08.082Z,96323.94
2023-03-21T05:30:35.294Z,96354.31
2023-03-21T05:33:02.835Z,96316.94
2023-03-21T05:35:29.731Z,96333.09
2023-03-21T05:37:59.095Z,96366.72
2023-03-21T05:40:28.644Z,96344.94
2023-03-21T05:43:00.696Z,96335.97
2023-03-21T05:45:27.487Z,96375.44
2023-03-21T05:47:55.678Z,96369.75
2023-03-21T05:50:26.269Z,96332.47
2023-03-21T05:53:07.946Z,96359.53
2023-03-21T05:55:34.975Z,96345.81
2023-03-21T05:58:02.558Z,96336.59
2023-03-21T06:00:30.780Z,96335.19
2023-03-21T06:03:20.505Z,96349.59
2023-03-21T06:06:05.616Z,96372.34
2023-03-21T06:08:48.969Z,96375.00
2023-03-21T06:11:28.732Z,96365.31
2023-03-21T06:14:16.827Z,96366.75
2023-03-21T06:16:45.355Z,96337.16
2023-03-21T06:19:12.934Z,96217.31
2023-03-21T06:21:57.835Z,96369.28
2023-03-21T06:24:25.201Z,96350.47
2023-03-21T06:26:52.098Z,96358.13
2023-03-21T06:29:18.933Z,96322.78
2023-03-21T06:31:48.858Z,96291.53
2023-03-21T06:34:16.403Z,96352.25
2023-03-21T06:36:44.766Z,96343.06
2023-03-21T06:39:13.867Z,96359.03
2023-03-21T06:41:41.074Z,96393.44
2023-03-21T06:44:07.814Z,96368.44
2023-03-21T06:46:42.521Z,96403.81
2023-03-21T06:49:09.297Z,96365.13
2023-03-21T06:51:36.044Z,96373.63
2023-03-21T06:54:09.785Z,96420.88
2023-03-21T06:56:41.548Z,96369.28
2023-03-21T06:59:11.320Z,96426.25
2023-03-21T07:01:50.223Z,96386.91
2023-03-21T07:04:16.865Z,96429.81
2023-03-21T07:06:43.863Z,96428.44
2023-03-21T07:09:10.953Z,96433.31
2023-03-21T07:11:38.298Z,96426.38
2023-03-21T07:14:06.500Z,96424.81
2023-03-21T07:16:33.280Z,96391.75
2023-03-21T07:19:00.032Z,96429.25
2023-03-21T07:21:26.712Z,96439.69
2023-03-21T07:23:53.790Z,96397.63
2023-03-21T07:26:20.715Z,96444.47
2023-03-21T07:28:47.466Z,96429.88
2023-03-21T07:31:16.696Z,96448.53
2023-03-21T07:33:43.747Z,96418.13
2023-03-21T07:36:13.064Z,96455.88
2023-03-21T07:38:41.129Z,96448.38
2023-03-21T07:41:08.017Z,96421.16
2023-03-21T07:43:37.130Z,96446.28
2023-03-21T07:46:09.421Z,96455.81
2023-03-21T07:48:37.213Z,96461.25
2023-03-21T07:51:04.215Z,96428.28
2023-03-21T07:53:31.111Z,96454.38
2023-03-21T07:56:00.657Z,96420.34
2023-03-21T07:58:28.463Z,96432.50
2023-03-21T08:00:56.607Z,96433.72
2023-03-21T08:03:24.008Z,96434.09
2023-03-21T08:05:51.080Z,96435.56
2023-03-21T08:08:18.003Z,96432.31
2023-03-21T08:10:45.050Z,96454.22
2023-03-21T08:13:12.475Z,96424.00
2023-03-21T08:15:42.031Z,96428.22
2023-03-21T08:18:10.012Z,96459.38
2023-03-21T08:20:36.840Z,96466.06
2023-03-21T08:23:03.601Z,96462.16
2023-03-21T08:25:30.871Z,96431.78
2023-03-21T08:27:57.504Z,96464.50
2023-03-21T08:30:26.431Z,96456.59
2023-03-21T08:33:00.463Z,96419.72
2023-03-21T08:35:27.838Z,96454.94
2023-03-21T08:37:54.506Z,96429.53
2023-03-21T08:40:21.191Z,96436.03
2023-03-21T08:42:47.980Z,96422.84
2023-03-21T08:45:16.567Z,96442.38
2023-03-21T08:47:43.632Z,96427.34
2023-03-21T08:50:14.398Z,96444.25
2023-03-21T08:52:41.508Z,96415.88
2023-03-21T08:55:09.153Z,96446.72
2023-03-21T08:57:36.252Z,96445.19
2023-03-21T09:00:14.850Z,96438.81
2023-03-21T09:02:42.699Z,96424.41
2023-03-21T09:05:11.867Z,96398.03
2023-03-21T09:07:39.980Z,96420.66
2023-03-21T09:10:25.346Z,96439.53
2023-03-21T09:12:54.608Z,96433.78
2023-03-21T09:15:24.779Z,96436.22
2023-03-21T09:17:54.133Z,96437.13
2023-03-21T09:20:30.625Z,96408.75
2023-03-21T09:22:58.782Z,96438.06
2023-03-21T09:25:25.596Z,96407.91
2023-03-21T09:27:53.760Z,96429.06
2023-03-21T09:30:24.787Z,96428.94
2023-03-21T09:32:53.642Z,96402.13
2023-03-21T09:35:21.140Z,96428.09
2023-03-21T09:37:49.004Z,96390.78
2023-03-21T09:40:29.841Z,96407.09
2023-03-21T09:43:17.128Z,96432.94
2023-03-21T09:45:54.875Z,96431.25
2023-03-21T09:48:57.088Z,96417.72
2023-03-21T09:51:28.705Z,96403.34
2023-03-21T09:53:57.676Z,96391.63
2023-03-21T09:56:26.056Z,96403.63
2023-03-21T09:58:59.336Z,96428.59
2023-03-21T10:01:29.844Z,96421.59
2023-03-21T10:04:00.150Z,96416.16
2023-03-21T10:06:31.719Z,96420.09
2023-03-21T10:09:07.288Z,96410.50
2023-03-21T10:11:50.423Z,96409.34
2023-03-21T10:14:32.304Z,96406.34
2023-03-21T10:17:04.214Z,96389.97
2023-03-21T10:19:30.981Z,96405.00
2023-03-21T10:22:01.107Z,96361.31
2023-03-21T10:24:31.355Z,96395.84
2023-03-21T10:26:58.656Z,96359.31
2023-03-21T10:29:30.570Z,96388.22
2023-03-21T10:31:57.415Z,96362.19
2023-03-21T10:34:36.694Z,96375.59
2023-03-21T10:37:05.499Z,96334.50
2023-03-21T10:39:44.056Z,96372.97
2023-03-21T10:42:18.097Z,96362.84
2023-03-21T10:44:51.339Z,96352.94
2023-03-21T10:47:24.746Z,96265.63
2023-03-21T10:50:08.805Z,96362.31
2023-03-21T10:52:38.450Z,96324.78
2023-03-21T10:55:18.614Z,96354.84
2023-03-21T10:57:47.265Z,96364.22
2023-03-21T11:00:21.706Z,96339.88
2023-03-21T11:02:51.341Z,96361.28
2023-03-21T11:05:34.832Z,96328.88
2023-03-21T11:08:18.641Z,96346.38
2023-03-21T11:11:02.314Z,96355.91
2023-03-21T11:13:34.988Z,96357.19
2023-03-21T11:16:25.459Z,96349.03
2023-03-21T11:18:56.969Z,96346.03
2023-03-21T11:21:29.707Z,96330.06
2023-03-21T11:23:57.478Z,96355.00
2023-03-21T11:26:36.592Z,96321.63
2023-03-21T11:29:20.897Z,96342.38
2023-03-21T11:31:48.174Z,96318.38
2023-03-21T11:34:32.901Z,96348.00
2023-03-21T11:37:02.670Z,96344.13
2023-03-21T11:39:39.942Z,96329.38
2023-03-21T11:42:26.719Z,96336.06
2023-03-21T11:45:01.599Z,96336.09
2023-03-21T11:47:28.520Z,96287.19
2023-03-21T11:50:04.626Z,96279.03
2023-03-21T11:52:41.239Z,96330.84
2023-03-21T11:55:11.390Z,96326.22
2023-03-21T11:57:54.824Z,96313.44
2023-03-21T12:00:57.956Z,96291.69
2023-03-21T12:03:48.500Z,96307.03
2023-03-21T12:06:22.507Z,96291.63
2023-03-21T12:09:01.361Z,96306.84
2023-03-21T12:11:37.499Z,96290.50
2023-03-21T12:14:48.651Z,96291.84
2023-03-21T12:17:53.294Z,96284.16
2023-03-21T12:20:52.021Z,96290.56
2023-03-21T12:23:27.759Z,96286.09
2023-03-21T12:25:58.017Z,96282.13
2023-03-21T12:28:39.909Z,96281.66
2023-03-21T12:31:33.091Z,96285.81
2023-03-21T12:33:59.691Z,96275.94
2023-03-21T12:36:38.633Z,96271.94
2023-03-21T12:39:11.132Z,96274.97
2023-03-21T12:41:50.187Z,96244.28
2023-03-21T12:44:21.319Z,96242.75
2023-03-21T12:47:02.291Z,96263.91
2023-03-21T12:49:35.061Z,96232.22
2023-03-21T12:52:07.677Z,96269.41
2023-03-21T12:55:18.751Z,96243.56
2023-03-21T12:58:18.354Z,96262.38
2023-03-21T13:00:48.877Z,96257.06
2023-03-21T13:03:39.836Z,96261.53
2023-03-21T13:06:09.639Z,96264.84
2023-03-21T13:08:58.243Z,96259.97
2023-03-21T13:11:27.930Z,96253.19
2023-03-21T13:14:16.441Z,96245.47
2023-03-21T13:17:06.693Z,96221.91
2023-03-21T13:19:42.548Z,96202.72
2023-03-21T13:22:15.055Z,96215.38
2023-03-21T13:24:48.490Z,96238.81
2023-03-21T13:27:36.344Z,96214.00
2023-03-21T13:30:06.540Z,96238.09
2023-03-21T13:32:41.681Z,96213.94
2023-03-21T13:35:18.989Z,96213.94
2023-03-21T13:38:21.880Z,96227.34
2023-03-21T13:40:57.918Z,96227.81
2023-03-21T13:43:42.948Z,96231.56
2023-03-21T13:46:54.679Z,96218.53
2023-03-21T13:49:36.656Z,96212.94
2023-03-21T13:52:09.303Z,96216.06
2023-03-21T13:54:39.031Z,96218.75
2023-03-21T13:57:06.679Z,96206.09
2023-03-21T13:59:44.710Z,96208.44
2023-03-21T14:02:29.518Z,96183.53
2023-03-21T14:05:17.407Z,96192.97
2023-03-21T14:07:48.305Z,96163.31
2023-03-21T14:10:42.175Z,96200.06
2023-03-21T14:13:16.270Z,96178.56
2023-03-21T14:15:55.370Z,96188.53
2023-03-21T14:18:34.909Z,96178.63
2023-03-21T14:21:24.324Z,96173.22
2023-03-21T14:24:12.550Z,96171.16
2023-03-21T14:26:47.005Z,96141.91
2023-03-21T14:29:26.107Z,96143.34
2023-03-21T14:31:56.420Z,96138.13
2023-03-21T14:34:26.436Z,96163.63
2023-03-21T14:36:58.325Z,96162.09
2023-03-21T14:39:31.222Z,96135.94
2023-03-21T14:42:11.538Z,96164.34
2023-03-21T14:44:54.040Z,96144.25
2023-03-21T14:47:27.791Z,96144.34
2023-03-21T14:49:56.426Z,96158.28
2023-03-21T14:52:33.192Z,96166.44
2023-03-21T14:55:01.962Z,96147.81
2023-03-21T14:57:33.218Z,96158.22
2023-03-21T15:00:07.665Z,96159.31
2023-03-21T15:02:36.796Z,96146.81
2023-03-21T15:05:19.747Z,96122.31
2023-03-21T15:08:08.115Z,96145.03
2023-03-21T15:10:36.061Z,96092.78
2023-03-21T15:13:15.141Z,96137.28
2023-03-21T15:15:42.989Z,96113.59
2023-03-21T15:18:16.405Z,96113.38
2023-03-21T15:20:43.933Z,96089.91
2023-03-21T15:23:21.352Z,96126.06
2023-03-21T15:25:48.001Z,96086.81
2023-03-21T15:28:14.894Z,96102.41
2023-03-21T15:30:51.325Z,96121.50
2023-03-21T15:33:19.081Z,96071.91
2023-03-21T15:35:57.880Z,96126.94
2023-03-21T15:38:41.582Z,96081.91
2023-03-21T15:41:14.381Z,96115.72
2023-03-21T15:43:42.127Z,96109.28
2023-03-21T15:46:16.628Z,96118.09
2023-03-21T15:48:44.278Z,96112.31
2023-03-21T15:51:23.878Z,96107.94
2023-03-21T15:53:54.133Z,96075.25
2023-03-21T15:56:22.134Z,96098.16
2023-03-21T15:58:52.593Z,96116.19
2023-03-21T16:01:22.096Z,96093.78
2023-03-21T16:03:56.677Z,96120.22
2023-03-21T16:06:30.118Z,96118.50
2023-03-21T16:09:08.898Z,96122.00
2023-03-21T16:11:43.789Z,96114.91
2023-03-21T16:14:10.943Z,96106.31
2023-03-21T16:16:39.842Z,96058.84
2023-03-21T16:19:07.502Z,96098.38
2023-03-21T16:21:38.192Z,96117.41
2023-03-21T16:24:06.656Z,96124.00
2023-03-21T16:26:37.911Z,96120.19
2023-03-21T16:29:07.143Z,96051.16
2023-03-21T16:31:35.274Z,96080.28
2023-03-21T16:34:01.946Z,96126.69
2023-03-21T16:36:33.855Z,96120.41
2023-03-21T16:39:00.536Z,96110.28
2023-03-21T16:41:28.094Z,96115.09
2023-03-21T16:43:55.339Z,96127.03
2023-03-21T16:46:25.409Z,96127.69
2023-03-21T16:48:58.680Z,96130.53
2023-03-21T16:51:31.564Z,96112.72
2023-03-21T16:53:58.563Z,96075.53
2023-03-21T16:56:38.490Z,96121.00
2023-03-21T16:59:06.045Z,96130.41
2023-03-21T17:01:32.841Z,96112.22
2023-03-21T17:04:00.130Z,96104.38
2023-03-21T17:06:29.466Z,96095.84
2023-03-21T17:08:57.738Z,96109.16
2023-03-21T17:11:26.245Z,96129.88
2023-03-21T17:13:54.921Z,96131.59
2023-03-21T17:16:26.594Z,96117.66
2023-03-21T17:18:54.051Z,96093.88
2023-03-21T17:21:24.595Z,96127.91
2023-03-21T17:23:51.980Z,96120.97
2023-03-21T17:26:21.800Z,96084.13
2023-03-21T17:28:48.977Z,96088.53
2023-03-21T17:31:18.477Z,96115.16
2023-03-21T17:33:45.930Z,96037.72
2023-03-21T17:36:30.631Z,96100.25
2023-03-21T17:38:57.943Z,96121.03
2023-03-21T17:41:45.701Z,96102.31
2023-03-21T17:44:12.382Z,96103.09
2023-03-21T17:46:39.311Z,96102.75
2023-03-21T17:49:06.548Z,96107.06
2023-03-21T17:51:33.238Z,96104.00
2023-03-21T17:54:00.437Z,96124.72
2023-03-21T17:56:30.711Z,96128.22
2023-03-21T17:58:59.676Z,96137.69
2023-03-21T18:01:26.785Z,96114.28
2023-03-21T18:03:56.699Z,96130.06
2023-03-21T18:06:25.576Z,96131.59
2023-03-21T18:08:53.600Z,96113.44
2023-03-21T18:11:22.119Z,96109.88
2023-03-21T18:13:48.945Z,96109.28
2023-03-21T18:16:19.366Z,96133.47
2023-03-21T18:18:46.723Z,96138.09
2023-03-21T18:21:19.641Z,96138.72
2023-03-21T18:23:47.835Z,96115.75
2023-03-21T18:26:18.211Z,96125.50
2023-03-21T18:28:46.778Z,96151.66
2023-03-21T18:31:19.804Z,96129.09
2023-03-21T18:33:48.630Z,96140.50
2023-03-21T18:36:24.777Z,96124.16
2023-03-21T18:38:52.643Z,96117.94
2023-03-21T18:41:19.857Z,96142.91
2023-03-21T18:44:12.966Z,96137.09
2023-03-21T18:46:34.105Z,96112.53
2023-03-21T18:49:15.080Z,96117.16
2023-03-21T18:51:48.061Z,96124.75
2023-03-21T18:54:20.558Z,96105.94
2023-03-21T18:57:34.220Z,96114.31
2023-03-21T18:59:41.208Z,96148.34
2023-03-21T19:02:08.135Z,96103.88
2023-03-21T19:04:37.543Z,96122.25
2023-03-21T19:07:05.145Z,96135.13
2023-03-21T19:09:32.278Z,96153.09
2023-03-21T19:12:00.713Z,96138.25
2023-03-21T19:14:28.047Z,96122.50
2023-03-21T19:17:45.486Z,96135.94
2023-03-21T19:19:43.565Z,96144.97
2023-03-21T19:22:11.420Z,96163.69
2023-03-21T19:24:39.718Z,96125.16
2023-03-21T19:27:07.555Z,96144.59
2023-03-21T19:29:34.428Z,96153.88
2023-03-21T19:32:01.503Z,96132.75
2023-03-21T19:34:32.492Z,96107.97
2023-03-21T19:37:02.605Z,96158.06
2023-03-21T19:39:29.552Z,96123.97
2023-03-21T19:42:12.498Z,96163.66
2023-03-21T19:44:42.514Z,96109.41
2023-03-21T19:47:10.608Z,96125.94
2023-03-21T19:50:27.302Z,96151.69
2023-03-21T19:52:29.956Z,96133.84
2023-03-21T19:54:56.908Z,96135.72
2023-03-21T19:57:25.028Z,96144.47
2023-03-21T19:59:54.652Z,96121.75
2023-03-21T20:02:35.032Z,96116.16
2023-03-21T20:05:02.463Z,96120.59
2023-03-21T20:07:31.370Z,96116.97
2023-03-21T20:09:58.349Z,96140.53
2023-03-21T20:12:25.075Z,96108.78
2023-03-21T20:14:56.020Z,96112.53
2023-03-21T20:17:28.057Z,96105.88
2023-03-21T20:19:58.182Z,96133.38
2023-03-21T20:22:46.051Z,96101.47
2023-03-21T20:25:12.102Z,96116.47
2023-03-21T20:27:41.564Z,96130.13
2023-03-21T20:30:14.958Z,96123.41
2023-03-21T20:32:43.955Z,96097.41
2023-03-21T20:35:21.021Z,96113.34
2023-03-21T20:37:59.831Z,96066.38
2023-03-21T20:40:26.643Z,96107.66
2023-03-21T20:42:56.241Z,96109.94
2023-03-21T20:45:22.903Z,96111.19
2023-03-21T20:47:49.667Z,96108.13
2023-03-21T20:50:22.240Z,96093.06
2023-03-21T20:53:04.904Z,96067.69
2023-03-21T20:55:37.064Z,96101.09
2023-03-21T20:58:23.176Z,96095.47
2023-03-21T21:00:59.395Z,96093.78
2023-03-21T21:03:26.792Z,96109.34
2023-03-21T21:05:54.131Z,96105.63
2023-03-21T21:08:20.814Z,96090.03
2023-03-21T21:11:19.113Z,96096.34
2023-03-21T21:13:36.729Z,96103.63
2023-03-21T21:16:05.959Z,96112.06
2023-03-21T21:18:33.379Z,96097.38
2023-03-21T21:21:05.200Z,96084.25
2023-03-21T21:23:37.050Z,96098.59
2023-03-21T21:26:04.743Z,96109.59
2023-03-21T21:28:31.624Z,96116.22
2023-03-21T21:31:14.464Z,96121.16
2023-03-21T21:33:41.138Z,96112.50
2023-03-21T21:36:09.337Z,96073.59
2023-03-21T21:38:36.890Z,96118.44
2023-03-21T21:41:04.040Z,96130.13
2023-03-21T21:43:31.336Z,96115.00
2023-03-21T21:45:58.004Z,96096.44
2023-03-21T21:48:24.913Z,96139.63
2023-03-21T21:50:54.090Z,96143.88
2023-03-21T21:53:23.472Z,96147.81
2023-03-21T21:55:51.114Z,96115.31
2023-03-21T21:58:18.862Z,96130.94
2023-03-21T22:00:47.234Z,96151.75
2023-03-21T22:03:16.306Z,96147.09
2023-03-21T22:05:44.469Z,96142.94
2023-03-21T22:08:11.493Z,96135.50
2023-03-21T22:10:38.635Z,96111.03
2023-03-21T22:13:05.513Z,96145.34
2023-03-21T22:15:33.271Z,96133.06
2023-03-21T22:18:00.033Z,96134.66
2023-03-21T22:20:26.848Z,96117.06
2023-03-21T22:22:56.695Z,96137.84
2023-03-21T22:25:23.691Z,96118.56
2023-03-21T22:27:50.647Z,96106.56
2023-03-21T22:30:18.632Z,96116.63
2023-03-21T22:32:56.438Z,96123.78
2023-03-21T22:35:29.423Z,96111.06
2023-03-21T22:37:56.379Z,96108.75
2023-03-21T22:40:24.298Z,96118.84
2023-03-21T22:42:50.944Z,96109.09
2023-03-21T22:45:17.774Z,96044.63
2023-03-21T22:47:44.469Z,96059.00
2023-03-21T22:50:11.241Z,96063.31
2023-03-21T22:52:37.920Z,96087.09
2023-03-21T22:55:05.051Z,96086.72
2023-03-21T22:57:31.813Z,96102.28
2023-03-21T22:59:58.594Z,96106.31
2023-03-21T23:02:25.567Z,96111.38
2023-03-21T23:04:52.459Z,96086.69
2023-03-21T23:07:19.248Z,96091.78
2023-03-21T23:09:45.989Z,96115.88
2023-03-21T23:12:14.189Z,96104.19
2023-03-21T23:14:40.920Z,96094.09
2023-03-21T23:17:10.243Z,96043.13
2023-03-21T23:19:37.808Z,96089.31
2023-03-21T23:22:05.972Z,96112.38
2023-03-21T23:24:32.630Z,96087.78
2023-03-21T23:26:59.331Z,96099.97
2023-03-21T23:29:26.031Z,96063.53
2023-03-21T23:31:52.764Z,96114.66
2023-03-21T23:34:19.700Z,96105.81
2023-03-21T23:36:46.688Z,96116.31
2023-03-21T23:39:13.458Z,96116.09
2023-03-21T23:41:42.679Z,96119.22
2023-03-21T23:44:09.465Z,96095.28
2023-03-21T23:46:36.183Z,96112.16
2023-03-21T23:49:03.038Z,96122.03
2023-03-21T23:51:29.668Z,96112.63
2023-03-21T23:53:57.199Z,96096.41
2023-03-21T23:56:26.103Z,96117.50
2023-03-21T23:58:52.880Z,96094.75
